sensor_id;sensor_type;location;lat;lon;timestamp;pressure;altitude;pressure_sealevel;temperature;humidity
22662;BME280;11497;52.222;21.246;2023-03-01T00:01:41;101756.66;;;-5.04;96.22
22662;BME280;11497;52.222;21.246;2023-03-01T00:04:09;101751.31;;;-5.08;96.65
22662;BME280;11497;52.222;21.246;2023-03-01T00:06:37;101754.75;;;-5.08;96.76
22662;BME280;11497;52.222;21.246;2023-03-01T00:09:05;101751.06;;;-5.13;96.84
22662;BME280;11497;52.222;21.246;2023-03-01T00:11:34;101747.41;;;-5.02;96.78
22662;BME280;11497;52.222;21.246;2023-03-01T00:14:02;101754.75;;;-5.08;96.98
22662;BME280;11497;52.222;21.246;2023-03-01T00:16:43;101742.63;;;-5.12;97.05
22662;BME280;11497;52.222;21.246;2023-03-01T00:19:16;101748.75;;;-5.08;97.06
22662;BME280;11497;52.222;21.246;2023-03-01T00:21:45;101741.19;;;-5.07;97.37
22662;BME280;11497;52.222;21.246;2023-03-01T00:24:13;101738.63;;;-5.07;97.19
22662;BME280;11497;52.222;21.246;2023-03-01T00:26:41;101732.72;;;-5.06;96.97
22662;BME280;11497;52.222;21.246;2023-03-01T00:29:09;101732.06;;;-4.85;97.37
22662;BME280;11497;52.222;21.246;2023-03-01T00:31:37;101726.81;;;-4.88;97.14
22662;BME280;11497;52.222;21.246;2023-03-01T00:34:06;101721.16;;;-4.99;97.10
22662;BME280;11497;52.222;21.246;2023-03-01T00:36:36;101731.53;;;-4.96;97.20
22662;BME280;11497;52.222;21.246;2023-03-01T00:39:09;101728.72;;;-4.84;97.49
22662;BME280;11497;52.222;21.246;2023-03-01T00:41:38;101740.84;;;-4.80;97.28
22662;BME280;11497;52.222;21.246;2023-03-01T00:44:08;101737.50;;;-4.79;97.04
22662;BME280;11497;52.222;21.246;2023-03-01T00:46:37;101742.28;;;-4.85;97.10
22662;BME280;11497;52.222;21.246;2023-03-01T00:49:05;101740.38;;;-4.89;97.05
22662;BME280;11497;52.222;21.246;2023-03-01T00:51:33;101730.16;;;-4.89;97.09
22662;BME280;11497;52.222;21.246;2023-03-01T00:54:02;101736.53;;;-4.81;97.05
22662;BME280;11497;52.222;21.246;2023-03-01T00:56:31;101734.13;;;-4.78;97.10
22662;BME280;11497;52.222;21.246;2023-03-01T00:59:00;101727.13;;;-4.82;97.10
22662;BME280;11497;52.222;21.246;2023-03-01T01:01:30;101731.13;;;-4.87;96.97
22662;BME280;11497;52.222;21.246;2023-03-01T01:04:02;101713.97;;;-4.90;97.39
22662;BME280;11497;52.222;21.246;2023-03-01T01:06:37;101718.50;;;-4.84;96.98
22662;BME280;11497;52.222;21.246;2023-03-01T01:09:06;101724.75;;;-4.95;97.10
22662;BME280;11497;52.222;21.246;2023-03-01T01:11:35;101716.44;;;-4.91;97.01
22662;BME280;11497;52.222;21.246;2023-03-01T01:14:06;101717.06;;;-4.79;97.18
22662;BME280;11497;52.222;21.246;2023-03-01T01:16:34;101713.56;;;-4.81;97.26
22662;BME280;11497;52.222;21.246;2023-03-01T01:19:02;101706.53;;;-4.85;97.00
22662;BME280;11497;52.222;21.246;2023-03-01T01:21:30;101697.75;;;-4.90;97.06
22662;BME280;11497;52.222;21.246;2023-03-01T01:23:58;101700.66;;;-5.00;97.05
22662;BME280;11497;52.222;21.246;2023-03-01T01:26:29;101704.47;;;-4.92;97.04
22662;BME280;11497;52.222;21.246;2023-03-01T01:29:00;101695.53;;;-5.00;96.91
22662;BME280;11497;52.222;21.246;2023-03-01T01:31:29;101703.69;;;-5.08;97.28
22662;BME280;11497;52.222;21.246;2023-03-01T01:33:59;101694.03;;;-5.13;97.27
22662;BME280;11497;52.222;21.246;2023-03-01T01:36:28;101696.09;;;-5.06;97.44
22662;BME280;11497;52.222;21.246;2023-03-01T01:38:57;101697.41;;;-4.80;97.74
22662;BME280;11497;52.222;21.246;2023-03-01T01:41:27;101691.78;;;-4.73;97.65
22662;BME280;11497;52.222;21.246;2023-03-01T01:44:18;101694.56;;;-4.86;97.59
22662;BME280;11497;52.222;21.246;2023-03-01T01:49:44;101682.47;;;-5.07;97.39
22662;BME280;11497;52.222;21.246;2023-03-01T01:52:18;101676.88;;;-4.99;97.51
22662;BME280;11497;52.222;21.246;2023-03-01T01:55:08;101681.66;;;-5.06;97.50
22662;BME280;11497;52.222;21.246;2023-03-01T01:57:52;101686.31;;;-5.15;97.56
22662;BME280;11497;52.222;21.246;2023-03-01T02:00:23;101681.03;;;-5.18;97.74
22662;BME280;11497;52.222;21.246;2023-03-01T02:03:05;101673.59;;;-5.31;98.00
22662;BME280;11497;52.222;21.246;2023-03-01T02:08:04;101666.09;;;-5.28;98.24
22662;BME280;11497;52.222;21.246;2023-03-01T02:10:33;101663.97;;;-5.19;98.23
22662;BME280;11497;52.222;21.246;2023-03-01T02:13:03;101677.41;;;-5.23;98.53
22662;BME280;11497;52.222;21.246;2023-03-01T02:15:35;101674.69;;;-5.26;98.45
22662;BME280;11497;52.222;21.246;2023-03-01T02:18:04;101668.97;;;-5.22;98.53
22662;BME280;11497;52.222;21.246;2023-03-01T02:23:13;101659.97;;;-5.14;98.47
22662;BME280;11497;52.222;21.246;2023-03-01T02:30:47;101656.41;;;-5.17;98.73
22662;BME280;11497;52.222;21.246;2023-03-01T02:33:38;101652.97;;;-5.18;98.84
22662;BME280;11497;52.222;21.246;2023-03-01T02:36:46;101647.22;;;-5.14;99.24
22662;BME280;11497;52.222;21.246;2023-03-01T02:39:33;101647.38;;;-5.11;98.94
22662;BME280;11497;52.222;21.246;2023-03-01T02:42:02;101647.06;;;-5.17;98.94
22662;BME280;11497;52.222;21.246;2023-03-01T02:44:32;101644.03;;;-5.10;98.99
22662;BME280;11497;52.222;21.246;2023-03-01T02:47:02;101645.63;;;-5.12;98.93
22662;BME280;11497;52.222;21.246;2023-03-01T02:49:33;101638.59;;;-5.16;98.84
22662;BME280;11497;52.222;21.246;2023-03-01T02:55:01;101642.19;;;-5.12;99.20
22662;BME280;11497;52.222;21.246;2023-03-01T02:57:31;101636.75;;;-5.02;99.11
22662;BME280;11497;52.222;21.246;2023-03-01T03:00:06;101630.75;;;-5.03;99.15
22662;BME280;11497;52.222;21.246;2023-03-01T03:02:36;101623.25;;;-4.99;99.18
22662;BME280;11497;52.222;21.246;2023-03-01T03:05:27;101628.66;;;-4.93;99.16
22662;BME280;11497;52.222;21.246;2023-03-01T03:08:02;101621.00;;;-4.93;99.08
22662;BME280;11497;52.222;21.246;2023-03-01T03:10:38;101610.22;;;-4.88;99.11
22662;BME280;11497;52.222;21.246;2023-03-01T03:13:10;101605.03;;;-4.89;99.07
22662;BME280;11497;52.222;21.246;2023-03-01T03:15:39;101606.13;;;-4.84;98.96
22662;BME280;11497;52.222;21.246;2023-03-01T03:18:11;101606.06;;;-4.86;98.93
22662;BME280;11497;52.222;21.246;2023-03-01T03:20:42;101611.44;;;-4.62;98.96
22662;BME280;11497;52.222;21.246;2023-03-01T03:23:10;101597.66;;;-4.65;98.70
22662;BME280;11497;52.222;21.246;2023-03-01T03:25:38;101602.03;;;-4.63;98.77
22662;BME280;11497;52.222;21.246;2023-03-01T03:28:07;101609.31;;;-4.53;98.64
22662;BME280;11497;52.222;21.246;2023-03-01T03:30:40;101602.63;;;-4.51;98.52
22662;BME280;11497;52.222;21.246;2023-03-01T03:33:09;101603.91;;;-4.41;98.38
22662;BME280;11497;52.222;21.246;2023-03-01T03:35:48;101613.78;;;-4.49;98.02
22662;BME280;11497;52.222;21.246;2023-03-01T03:38:18;101614.06;;;-4.43;97.84
22662;BME280;11497;52.222;21.246;2023-03-01T03:40:52;101611.44;;;-4.44;97.81
22662;BME280;11497;52.222;21.246;2023-03-01T03:43:22;101605.25;;;-4.49;97.52
22662;BME280;11497;52.222;21.246;2023-03-01T03:45:51;101611.66;;;-4.57;97.63
22662;BME280;11497;52.222;21.246;2023-03-01T03:48:19;101591.97;;;-4.60;97.67
22662;BME280;11497;52.222;21.246;2023-03-01T03:50:52;101601.16;;;-4.63;97.68
22662;BME280;11497;52.222;21.246;2023-03-01T03:53:22;101592.75;;;-4.61;97.83
22662;BME280;11497;52.222;21.246;2023-03-01T03:55:50;101589.25;;;-4.63;97.83
22662;BME280;11497;52.222;21.246;2023-03-01T03:58:20;101581.31;;;-4.51;97.96
22662;BME280;11497;52.222;21.246;2023-03-01T04:00:52;101573.28;;;-4.59;98.11
22662;BME280;11497;52.222;21.246;2023-03-01T04:03:21;101575.03;;;-4.58;98.01
22662;BME280;11497;52.222;21.246;2023-03-01T04:05:50;101570.19;;;-4.52;98.24
22662;BME280;11497;52.222;21.246;2023-03-01T04:08:22;101569.63;;;-4.46;98.47
22662;BME280;11497;52.222;21.246;2023-03-01T04:10:53;101572.97;;;-4.47;98.53
22662;BME280;11497;52.222;21.246;2023-03-01T04:13:24;101578.97;;;-4.47;98.62
22662;BME280;11497;52.222;21.246;2023-03-01T04:15:53;101579.53;;;-4.34;98.81
22662;BME280;11497;52.222;21.246;2023-03-01T04:18:23;101579.19;;;-4.23;98.50
22662;BME280;11497;52.222;21.246;2023-03-01T04:20:53;101585.38;;;-4.37;98.17
22662;BME280;11497;52.222;21.246;2023-03-01T04:23:22;101595.75;;;-4.34;98.21
22662;BME280;11497;52.222;21.246;2023-03-01T04:25:55;101591.38;;;-4.37;98.18
22662;BME280;11497;52.222;21.246;2023-03-01T04:28:28;101574.28;;;-4.38;98.07
22662;BME280;11497;52.222;21.246;2023-03-01T04:30:58;101572.31;;;-4.43;98.07
22662;BME280;11497;52.222;21.246;2023-03-01T04:33:26;101569.16;;;-4.38;98.03
22662;BME280;11497;52.222;21.246;2023-03-01T04:35:54;101563.63;;;-4.47;98.04
22662;BME280;11497;52.222;21.246;2023-03-01T04:38:22;101558.06;;;-4.38;98.03
22662;BME280;11497;52.222;21.246;2023-03-01T04:40:51;101553.13;;;-4.53;97.98
22662;BME280;11497;52.222;21.246;2023-03-01T04:43:18;101546.13;;;-4.57;98.23
22662;BME280;11497;52.222;21.246;2023-03-01T04:45:46;101545.38;;;-4.54;98.35
22662;BME280;11497;52.222;21.246;2023-03-01T04:48:14;101547.34;;;-4.49;98.45
22662;BME280;11497;52.222;21.246;2023-03-01T04:50:42;101547.69;;;-4.41;98.68
22662;BME280;11497;52.222;21.246;2023-03-01T04:53:10;101548.16;;;-4.50;98.59
22662;BME280;11497;52.222;21.246;2023-03-01T04:55:38;101547.56;;;-4.44;98.64
22662;BME280;11497;52.222;21.246;2023-03-01T04:58:05;101541.44;;;-4.48;98.78
22662;BME280;11497;52.222;21.246;2023-03-01T05:00:34;101549.91;;;-4.49;98.68
22662;BME280;11497;52.222;21.246;2023-03-01T05:03:02;101544.66;;;-4.52;98.65
22662;BME280;11497;52.222;21.246;2023-03-01T05:05:35;101552.59;;;-4.46;98.78
22662;BME280;11497;52.222;21.246;2023-03-01T05:08:04;101556.63;;;-4.31;98.90
22662;BME280;11497;52.222;21.246;2023-03-01T05:10:34;101562.91;;;-4.25;98.85
22662;BME280;11497;52.222;21.246;2023-03-01T05:13:04;101576.78;;;-4.20;98.50
22662;BME280;11497;52.222;21.246;2023-03-01T05:15:32;101572.91;;;-4.29;98.38
22662;BME280;11497;52.222;21.246;2023-03-01T05:18:00;101569.63;;;-4.27;98.26
22662;BME280;11497;52.222;21.246;2023-03-01T05:20:31;101561.63;;;-4.34;98.25
22662;BME280;11497;52.222;21.246;2023-03-01T05:23:00;101567.28;;;-4.42;98.01
22662;BME280;11497;52.222;21.246;2023-03-01T05:25:28;101567.13;;;-4.45;98.09
22662;BME280;11497;52.222;21.246;2023-03-01T05:28:02;101577.63;;;-4.39;98.34
22662;BME280;11497;52.222;21.246;2023-03-01T05:30:34;101586.19;;;-4.38;98.27
22662;BME280;11497;52.222;21.246;2023-03-01T05:33:02;101578.50;;;-4.38;98.35
22662;BME280;11497;52.222;21.246;2023-03-01T05:35:32;101586.38;;;-4.33;98.59
22662;BME280;11497;52.222;21.246;2023-03-01T05:38:00;101592.91;;;-4.21;98.69
22662;BME280;11497;52.222;21.246;2023-03-01T05:40:28;101590.44;;;-4.19;98.73
22662;BME280;11497;52.222;21.246;2023-03-01T05:42:57;101593.59;;;-4.06;98.89
22662;BME280;11497;52.222;21.246;2023-03-01T05:45:26;101599.00;;;-3.99;98.94
22662;BME280;11497;52.222;21.246;2023-03-01T05:47:54;101591.78;;;-3.89;99.04
22662;BME280;11497;52.222;21.246;2023-03-01T05:50:25;101593.81;;;-3.82;99.13
22662;BME280;11497;52.222;21.246;2023-03-01T05:55:27;101589.50;;;-3.43;99.34
22662;BME280;11497;52.222;21.246;2023-03-01T05:57:57;101593.53;;;-3.28;99.03
22662;BME280;11497;52.222;21.246;2023-03-01T06:00:25;101593.56;;;-3.08;99.22
22662;BME280;11497;52.222;21.246;2023-03-01T06:02:54;101599.53;;;-2.86;98.82
22662;BME280;11497;52.222;21.246;2023-03-01T06:05:23;101591.41;;;-2.76;98.39
22662;BME280;11497;52.222;21.246;2023-03-01T06:07:52;101588.03;;;-2.53;98.30
22662;BME280;11497;52.222;21.246;2023-03-01T06:10:22;101584.41;;;-2.13;97.77
22662;BME280;11497;52.222;21.246;2023-03-01T06:12:50;101586.25;;;-1.87;97.65
22662;BME280;11497;52.222;21.246;2023-03-01T06:15:18;101578.91;;;-1.52;96.69
22662;BME280;11497;52.222;21.246;2023-03-01T06:17:46;101572.84;;;-1.29;95.56
22662;BME280;11497;52.222;21.246;2023-03-01T06:20:19;101586.00;;;-0.94;95.02
22662;BME280;11497;52.222;21.246;2023-03-01T06:22:48;101582.69;;;-0.63;94.21
22662;BME280;11497;52.222;21.246;2023-03-01T06:25:19;101588.06;;;-0.27;92.42
22662;BME280;11497;52.222;21.246;2023-03-01T06:27:47;101582.09;;;0.04;90.60
22662;BME280;11497;52.222;21.246;2023-03-01T06:30:18;101586.72;;;0.47;88.69
22662;BME280;11497;52.222;21.246;2023-03-01T06:32:46;101589.13;;;0.72;86.81
22662;BME280;11497;52.222;21.246;2023-03-01T06:35:16;101587.56;;;1.13;85.62
22662;BME280;11497;52.222;21.246;2023-03-01T06:37:48;101585.50;;;1.72;84.08
22662;BME280;11497;52.222;21.246;2023-03-01T06:40:17;101578.69;;;2.19;81.69
22662;BME280;11497;52.222;21.246;2023-03-01T06:42:49;101579.66;;;2.71;80.07
22662;BME280;11497;52.222;21.246;2023-03-01T06:45:19;101581.66;;;3.40;78.90
22662;BME280;11497;52.222;21.246;2023-03-01T06:47:47;101578.97;;;3.96;76.60
22662;BME280;11497;52.222;21.246;2023-03-01T06:50:16;101580.50;;;4.56;74.04
22662;BME280;11497;52.222;21.246;2023-03-01T06:52:44;101582.50;;;4.84;70.47
22662;BME280;11497;52.222;21.246;2023-03-01T06:55:13;101579.84;;;4.77;67.83
22662;BME280;11497;52.222;21.246;2023-03-01T06:57:41;101577.25;;;4.75;66.05
22662;BME280;11497;52.222;21.246;2023-03-01T07:00:09;101584.41;;;5.04;64.75
22662;BME280;11497;52.222;21.246;2023-03-01T07:02:37;101584.75;;;5.49;63.18
22662;BME280;11497;52.222;21.246;2023-03-01T07:05:06;101584.63;;;5.34;61.38
22662;BME280;11497;52.222;21.246;2023-03-01T07:07:36;101586.25;;;5.17;60.53
22662;BME280;11497;52.222;21.246;2023-03-01T07:10:05;101581.03;;;5.14;60.41
22662;BME280;11497;52.222;21.246;2023-03-01T07:12:33;101588.22;;;5.48;59.95
22662;BME280;11497;52.222;21.246;2023-03-01T07:15:01;101583.16;;;5.76;58.44
22662;BME280;11497;52.222;21.246;2023-03-01T07:17:29;101588.53;;;6.09;58.13
22662;BME280;11497;52.222;21.246;2023-03-01T07:19:57;101581.63;;;6.14;56.66
22662;BME280;11497;52.222;21.246;2023-03-01T07:22:25;101574.84;;;6.71;55.92
22662;BME280;11497;52.222;21.246;2023-03-01T07:24:53;101562.72;;;6.82;54.75
22662;BME280;11497;52.222;21.246;2023-03-01T07:27:21;101573.97;;;6.58;53.70
22662;BME280;11497;52.222;21.246;2023-03-01T07:29:49;101575.72;;;6.75;53.59
22662;BME280;11497;52.222;21.246;2023-03-01T07:32:17;101569.66;;;7.01;53.24
22662;BME280;11497;52.222;21.246;2023-03-01T07:34:45;101569.63;;;7.41;52.46
22662;BME280;11497;52.222;21.246;2023-03-01T07:37:13;101568.63;;;7.91;51.90
22662;BME280;11497;52.222;21.246;2023-03-01T07:39:41;101562.56;;;7.89;50.98
22662;BME280;11497;52.222;21.246;2023-03-01T07:42:09;101565.97;;;8.09;50.52
22662;BME280;11497;52.222;21.246;2023-03-01T07:44:37;101552.44;;;8.90;49.64
22662;BME280;11497;52.222;21.246;2023-03-01T07:47:05;101562.91;;;9.76;48.23
22662;BME280;11497;52.222;21.246;2023-03-01T07:49:33;101553.19;;;9.88;46.92
22662;BME280;11497;52.222;21.246;2023-03-01T07:52:01;101555.41;;;10.19;46.15
22662;BME280;11497;52.222;21.246;2023-03-01T07:54:29;101552.91;;;10.74;45.01
22662;BME280;11497;52.222;21.246;2023-03-01T07:56:57;101557.34;;;11.69;43.82
22662;BME280;11497;52.222;21.246;2023-03-01T07:59:26;101556.94;;;12.69;41.49
22662;BME280;11497;52.222;21.246;2023-03-01T08:01:57;101553.81;;;13.26;40.12
22662;BME280;11497;52.222;21.246;2023-03-01T08:04:25;101560.63;;;14.27;38.37
22662;BME280;11497;52.222;21.246;2023-03-01T08:06:55;101558.41;;;14.97;36.60
22662;BME280;11497;52.222;21.246;2023-03-01T08:09:23;101572.16;;;14.53;35.51
22662;BME280;11497;52.222;21.246;2023-03-01T08:11:50;101562.44;;;14.25;35.26
22662;BME280;11497;52.222;21.246;2023-03-01T08:14:18;101576.22;;;14.04;35.63
22662;BME280;11497;52.222;21.246;2023-03-01T08:16:49;101567.53;;;13.39;35.92
22662;BME280;11497;52.222;21.246;2023-03-01T08:19:18;101564.25;;;13.92;35.93
22662;BME280;11497;52.222;21.246;2023-03-01T08:21:45;101571.34;;;14.51;35.20
22662;BME280;11497;52.222;21.246;2023-03-01T08:24:13;101568.59;;;14.54;34.47
22662;BME280;11497;52.222;21.246;2023-03-01T08:26:41;101564.19;;;14.82;34.21
22662;BME280;11497;52.222;21.246;2023-03-01T08:29:09;101565.59;;;14.92;33.81
22662;BME280;11497;52.222;21.246;2023-03-01T08:31:39;101556.16;;;15.63;33.28
22662;BME280;11497;52.222;21.246;2023-03-01T08:34:13;101550.56;;;16.19;32.21
22662;BME280;11497;52.222;21.246;2023-03-01T08:36:45;101545.00;;;16.26;32.15
22662;BME280;11497;52.222;21.246;2023-03-01T08:39:16;101552.63;;;16.56;31.20
22662;BME280;11497;52.222;21.246;2023-03-01T08:41:44;101553.16;;;16.44;31.25
22662;BME280;11497;52.222;21.246;2023-03-01T08:44:15;101560.00;;;16.03;31.20
22662;BME280;11497;52.222;21.246;2023-03-01T08:46:44;101561.41;;;16.35;31.06
22662;BME280;11497;52.222;21.246;2023-03-01T08:49:15;101564.59;;;16.66;30.84
22662;BME280;11497;52.222;21.246;2023-03-01T08:51:44;101558.66;;;16.38;30.94
22662;BME280;11497;52.222;21.246;2023-03-01T08:54:16;101556.59;;;16.46;30.72
22662;BME280;11497;52.222;21.246;2023-03-01T08:56:44;101560.69;;;16.76;30.53
22662;BME280;11497;52.222;21.246;2023-03-01T08:59:14;101568.84;;;16.25;30.62
22662;BME280;11497;52.222;21.246;2023-03-01T09:01:42;101554.25;;;16.38;30.57
22662;BME280;11497;52.222;21.246;2023-03-01T09:04:12;101555.97;;;16.16;30.62
22662;BME280;11497;52.222;21.246;2023-03-01T09:06:40;101561.38;;;15.64;31.07
22662;BME280;11497;52.222;21.246;2023-03-01T09:09:14;101559.44;;;15.45;31.59
22662;BME280;11497;52.222;21.246;2023-03-01T09:11:44;101559.31;;;14.96;32.29
22662;BME280;11497;52.222;21.246;2023-03-01T09:14:14;101552.25;;;14.43;32.97
22662;BME280;11497;52.222;21.246;2023-03-01T09:16:43;101547.91;;;13.83;33.58
22662;BME280;11497;52.222;21.246;2023-03-01T09:19:11;101540.69;;;13.88;34.03
22662;BME280;11497;52.222;21.246;2023-03-01T09:21:39;101552.03;;;13.28;34.63
22662;BME280;11497;52.222;21.246;2023-03-01T09:24:13;101543.34;;;12.89;35.53
22662;BME280;11497;52.222;21.246;2023-03-01T09:26:42;101537.56;;;12.38;35.79
22662;BME280;11497;52.222;21.246;2023-03-01T09:29:16;101536.06;;;11.38;37.21
22662;BME280;11497;52.222;21.246;2023-03-01T09:31:44;101535.78;;;11.53;37.96
22662;BME280;11497;52.222;21.246;2023-03-01T09:34:12;101533.38;;;11.89;38.35
22662;BME280;11497;52.222;21.246;2023-03-01T09:36:43;101529.47;;;12.47;37.83
22662;BME280;11497;52.222;21.246;2023-03-01T09:39:11;101531.66;;;13.00;37.10
22662;BME280;11497;52.222;21.246;2023-03-01T09:42:02;101531.56;;;13.39;36.57
22662;BME280;11497;52.222;21.246;2023-03-01T09:44:54;101534.25;;;13.69;36.50
22662;BME280;11497;52.222;21.246;2023-03-01T09:47:30;101534.28;;;14.27;35.82
22662;BME280;11497;52.222;21.246;2023-03-01T09:50:18;101532.84;;;14.73;35.07
22662;BME280;11497;52.222;21.246;2023-03-01T09:53:02;101526.97;;;14.65;35.13
22662;BME280;11497;52.222;21.246;2023-03-01T09:55:39;101529.56;;;14.37;35.05
22662;BME280;11497;52.222;21.246;2023-03-01T09:58:37;101520.03;;;14.62;35.25
22662;BME280;11497;52.222;21.246;2023-03-01T10:09:46;101507.75;;;15.64;33.88
22662;BME280;11497;52.222;21.246;2023-03-01T10:12:18;101496.22;;;15.67;33.56
22662;BME280;11497;52.222;21.246;2023-03-01T10:15:20;101487.81;;;15.30;33.64
22662;BME280;11497;52.222;21.246;2023-03-01T10:17:55;101484.63;;;15.94;33.08
22662;BME280;11497;52.222;21.246;2023-03-01T10:20:26;101491.53;;;16.20;32.73
22662;BME280;11497;52.222;21.246;2023-03-01T10:22:54;101490.78;;;15.94;32.39
22662;BME280;11497;52.222;21.246;2023-03-01T10:30:45;101483.25;;;15.60;32.74
22662;BME280;11497;52.222;21.246;2023-03-01T10:33:32;101477.94;;;14.31;33.33
22662;BME280;11497;52.222;21.246;2023-03-01T10:36:00;101479.16;;;13.33;34.81
22662;BME280;11497;52.222;21.246;2023-03-01T10:38:33;101471.88;;;12.02;36.46
22662;BME280;11497;52.222;21.246;2023-03-01T10:41:14;101471.13;;;11.08;38.47
22662;BME280;11497;52.222;21.246;2023-03-01T10:43:51;101472.91;;;10.55;39.93
22662;BME280;11497;52.222;21.246;2023-03-01T10:46:35;101477.34;;;9.90;40.79
22662;BME280;11497;52.222;21.246;2023-03-01T10:49:30;101475.94;;;9.60;41.92
22662;BME280;11497;52.222;21.246;2023-03-01T10:52:17;101469.53;;;9.12;42.73
22662;BME280;11497;52.222;21.246;2023-03-01T10:57:49;101471.38;;;9.04;43.93
22662;BME280;11497;52.222;21.246;2023-03-01T11:00:25;101472.41;;;8.86;44.63
22662;BME280;11497;52.222;21.246;2023-03-01T11:03:08;101471.59;;;8.79;45.46
22662;BME280;11497;52.222;21.246;2023-03-01T11:06:05;101464.00;;;8.50;45.98
22662;BME280;11497;52.222;21.246;2023-03-01T11:08:42;101454.53;;;8.29;46.50
22662;BME280;11497;52.222;21.246;2023-03-01T11:13:56;101458.06;;;8.25;47.59
22662;BME280;11497;52.222;21.246;2023-03-01T11:16:30;101459.81;;;8.23;47.92
22662;BME280;11497;52.222;21.246;2023-03-01T11:21:47;101451.06;;;8.37;48.18
22662;BME280;11497;52.222;21.246;2023-03-01T11:24:19;101445.75;;;8.49;48.54
22662;BME280;11497;52.222;21.246;2023-03-01T11:26:53;101451.00;;;8.43;49.02
22662;BME280;11497;52.222;21.246;2023-03-01T11:32:15;101439.00;;;8.17;49.34
22662;BME280;11497;52.222;21.246;2023-03-01T11:34:59;101436.28;;;8.31;50.00
22662;BME280;11497;52.222;21.246;2023-03-01T11:37:44;101448.47;;;8.35;49.74
22662;BME280;11497;52.222;21.246;2023-03-01T11:45:51;101437.97;;;8.44;49.64
22662;BME280;11497;52.222;21.246;2023-03-01T11:57:04;101433.72;;;8.23;50.62
22662;BME280;11497;52.222;21.246;2023-03-01T12:02:13;101432.03;;;8.19;51.00
22662;BME280;11497;52.222;21.246;2023-03-01T12:10:33;101437.06;;;8.50;50.61
22662;BME280;11497;52.222;21.246;2023-03-01T12:16:12;101436.97;;;8.59;50.88
22662;BME280;11497;52.222;21.246;2023-03-01T12:30:51;101412.31;;;8.92;50.33
22662;BME280;11497;52.222;21.246;2023-03-01T12:34:24;101412.34;;;8.87;50.53
22662;BME280;11497;52.222;21.246;2023-03-01T12:45:19;101406.69;;;8.40;52.61
22662;BME280;11497;52.222;21.246;2023-03-01T12:50:26;101403.06;;;8.59;52.92
22662;BME280;11497;52.222;21.246;2023-03-01T12:52:58;101397.00;;;8.57;52.94
22662;BME280;11497;52.222;21.246;2023-03-01T12:55:31;101394.38;;;8.58;52.61
22662;BME280;11497;52.222;21.246;2023-03-01T13:01:18;101394.84;;;8.95;52.27
22662;BME280;11497;52.222;21.246;2023-03-01T13:11:56;101395.38;;;8.41;53.72
22662;BME280;11497;52.222;21.246;2023-03-01T13:16:55;101388.44;;;8.40;53.60
22662;BME280;11497;52.222;21.246;2023-03-01T13:19:25;101388.59;;;8.18;53.93
22662;BME280;11497;52.222;21.246;2023-03-01T13:21:54;101384.28;;;8.14;54.07
22662;BME280;11497;52.222;21.246;2023-03-01T13:24:43;101386.88;;;8.14;54.13
22662;BME280;11497;52.222;21.246;2023-03-01T13:29:53;101378.19;;;8.12;54.64
22662;BME280;11497;52.222;21.246;2023-03-01T13:32:29;101375.56;;;8.17;55.02
22662;BME280;11497;52.222;21.246;2023-03-01T13:37:45;101371.13;;;8.23;55.29
22662;BME280;11497;52.222;21.246;2023-03-01T13:42:54;101366.97;;;8.01;55.75
22662;BME280;11497;52.222;21.246;2023-03-01T13:45:50;101369.59;;;7.98;55.90
22662;BME280;11497;52.222;21.246;2023-03-01T13:48:25;101362.72;;;7.85;56.25
22662;BME280;11497;52.222;21.246;2023-03-01T13:51:02;101358.53;;;7.67;56.56
22662;BME280;11497;52.222;21.246;2023-03-01T13:53:35;101362.94;;;7.50;56.80
22662;BME280;11497;52.222;21.246;2023-03-01T13:56:15;101361.22;;;7.47;56.84
22662;BME280;11497;52.222;21.246;2023-03-01T13:58:49;101369.84;;;7.60;57.15
22662;BME280;11497;52.222;21.246;2023-03-01T14:01:29;101364.56;;;7.74;56.99
22662;BME280;11497;52.222;21.246;2023-03-01T14:03:59;101358.50;;;7.72;56.97
22662;BME280;11497;52.222;21.246;2023-03-01T14:06:32;101353.91;;;8.07;56.60
22662;BME280;11497;52.222;21.246;2023-03-01T14:09:10;101356.34;;;8.24;56.26
22662;BME280;11497;52.222;21.246;2023-03-01T14:14:42;101352.66;;;8.52;55.93
22662;BME280;11497;52.222;21.246;2023-03-01T14:22:41;101352.28;;;7.91;55.72
22662;BME280;11497;52.222;21.246;2023-03-01T14:25:23;101352.22;;;7.97;56.27
22662;BME280;11497;52.222;21.246;2023-03-01T14:30:36;101346.94;;;8.09;56.05
22662;BME280;11497;52.222;21.246;2023-03-01T14:33:17;101341.88;;;7.88;56.28
22662;BME280;11497;52.222;21.246;2023-03-01T14:36:01;101338.66;;;7.46;56.83
22662;BME280;11497;52.222;21.246;2023-03-01T14:38:38;101330.00;;;7.38;57.34
22662;BME280;11497;52.222;21.246;2023-03-01T14:41:16;101323.13;;;7.31;57.96
22662;BME280;11497;52.222;21.246;2023-03-01T14:43:49;101323.25;;;7.00;58.16
22662;BME280;11497;52.222;21.246;2023-03-01T14:46:20;101325.06;;;6.79;59.00
22662;BME280;11497;52.222;21.246;2023-03-01T14:48:54;101322.50;;;6.76;59.35
22662;BME280;11497;52.222;21.246;2023-03-01T14:51:24;101322.50;;;6.73;59.55
22662;BME280;11497;52.222;21.246;2023-03-01T14:53:52;101328.56;;;6.64;59.96
22662;BME280;11497;52.222;21.246;2023-03-01T14:56:20;101330.38;;;6.50;60.69
22662;BME280;11497;52.222;21.246;2023-03-01T14:58:53;101332.97;;;6.48;61.19
22662;BME280;11497;52.222;21.246;2023-03-01T15:01:21;101319.97;;;6.47;61.34
22662;BME280;11497;52.222;21.246;2023-03-01T15:03:50;101324.31;;;6.29;61.95
22662;BME280;11497;52.222;21.246;2023-03-01T15:06:21;101318.25;;;6.27;62.50
22662;BME280;11497;52.222;21.246;2023-03-01T15:08:51;101319.97;;;6.25;62.99
22662;BME280;11497;52.222;21.246;2023-03-01T15:11:28;101313.03;;;6.24;63.25
22662;BME280;11497;52.222;21.246;2023-03-01T15:13:57;101311.31;;;6.14;63.51